createdAt,value
2019-02-27T00:02:41.940Z,7.19
2019-02-27T00:07:44.355Z,7.12
2019-02-27T00:12:46.422Z,7.02
2019-02-27T00:17:51.162Z,7.01
2019-02-27T00:22:52.944Z,6.88
2019-02-27T00:27:55.124Z,6.83
2019-02-27T00:32:57.376Z,6.84
2019-02-27T00:37:59.495Z,6.74
2019-02-27T00:43:01.618Z,6.61
2019-02-27T00:48:04.045Z,6.60
2019-02-27T00:53:06.527Z,6.47
2019-02-27T00:58:08.641Z,6.42
2019-02-27T01:03:11.259Z,6.41
2019-02-27T01:08:13.391Z,6.36
2019-02-27T01:13:15.526Z,6.29
2019-02-27T01:18:17.579Z,6.26
2019-02-27T01:23:19.739Z,6.25
2019-02-27T01:28:22.537Z,6.11
2019-02-27T01:33:24.597Z,5.95
2019-02-27T01:38:26.659Z,5.93
2019-02-27T01:43:28.798Z,5.92
2019-02-27T01:48:30.946Z,5.89
2019-02-27T01:53:33.042Z,5.76
2019-02-27T01:58:35.030Z,5.63
2019-02-27T02:03:37.185Z,5.77
2019-02-27T02:08:39.382Z,5.68
2019-02-27T02:14:20.963Z,5.65
2019-02-27T02:19:59.672Z,5.44
2019-02-27T02:25:29.006Z,5.37
2019-02-27T02:31:18.666Z,5.14
2019-02-27T02:36:51.862Z,5.02
2019-02-27T02:42:17.961Z,5.16
2019-02-27T02:47:43.750Z,5.01
2019-02-27T02:53:40.038Z,5.01
2019-02-27T02:59:26.239Z,4.94
2019-02-27T03:05:00.621Z,4.85
2019-02-27T03:10:26.842Z,4.98
2019-02-27T03:15:46.901Z,4.92
2019-02-27T03:21:11.114Z,4.73
2019-02-27T03:26:22.181Z,4.77
2019-02-27T03:32:07.515Z,4.63
2019-02-27T03:37:36.807Z,4.61
2019-02-27T03:43:20.004Z,4.61
2019-02-27T03:49:02.980Z,4.46
2019-02-27T03:54:21.385Z,4.47
2019-02-27T04:00:00.463Z,4.32
2019-02-27T04:05:46.279Z,4.34
2019-02-27T04:10:48.616Z,4.14
2019-02-27T04:15:53.798Z,3.97
2019-02-27T04:20:55.629Z,4.03
2019-02-27T04:25:57.827Z,4.00
2019-02-27T04:30:59.963Z,4.02
2019-02-27T04:36:02.099Z,3.94
2019-02-27T04:41:04.260Z,3.97
2019-02-27T04:46:06.326Z,3.97
2019-02-27T04:51:08.909Z,3.93
2019-02-27T04:56:10.981Z,3.95
2019-02-27T05:01:13.115Z,3.94
2019-02-27T05:06:15.414Z,3.84
2019-02-27T05:11:17.653Z,3.80
2019-02-27T05:16:19.659Z,3.79
2019-02-27T05:21:22.034Z,3.77
2019-02-27T05:26:27.105Z,3.79
2019-02-27T05:31:28.333Z,3.71
2019-02-27T05:36:31.736Z,3.75
2019-02-27T05:41:34.564Z,3.66
2019-02-27T05:46:38.457Z,3.40
2019-02-27T05:51:41.347Z,3.58
2019-02-27T05:56:43.484Z,3.43
2019-02-27T06:01:46.485Z,3.43
2019-02-27T06:06:48.880Z,3.25
2019-02-27T06:11:51.074Z,3.15
2019-02-27T06:16:53.290Z,3.08
2019-02-27T06:21:56.277Z,3.20
2019-02-27T06:26:59.061Z,3.07
2019-02-27T06:32:01.299Z,2.89
2019-02-27T06:37:03.666Z,3.00
2019-02-27T06:42:06.011Z,3.06
2019-02-27T06:47:08.252Z,3.02
2019-02-27T06:52:10.483Z,3.05
2019-02-27T06:57:13.066Z,2.92
2019-02-27T07:02:15.497Z,3.06
2019-02-27T07:07:17.644Z,3.09
2019-02-27T07:12:21.910Z,3.17
2019-02-27T07:17:23.644Z,3.11
2019-02-27T07:22:26.103Z,3.27
2019-02-27T07:27:31.204Z,3.44
2019-02-27T07:32:34.298Z,3.42
2019-02-27T07:37:36.382Z,3.60
2019-02-27T07:42:38.495Z,3.67
2019-02-27T07:47:40.552Z,3.99
2019-02-27T07:52:42.638Z,4.14
2019-02-27T07:57:44.757Z,4.38
2019-02-27T08:02:47.019Z,4.63
2019-02-27T08:07:49.923Z,4.82
2019-02-27T08:12:55.515Z,4.97
2019-02-27T08:17:57.983Z,5.02
2019-02-27T08:23:00.226Z,5.03
2019-02-27T08:28:02.364Z,5.17
2019-02-27T08:33:08.220Z,5.38
2019-02-27T08:38:10.248Z,5.57
2019-02-27T08:43:12.462Z,5.65
2019-02-27T08:48:17.110Z,5.82
2019-02-27T08:53:19.022Z,5.92
2019-02-27T08:58:21.495Z,6.12
2019-02-27T09:03:23.626Z,6.25
2019-02-27T09:08:25.694Z,6.40
2019-02-27T09:13:27.799Z,6.53
2019-02-27T09:18:29.978Z,6.76
2019-02-27T09:23:32.285Z,6.97
2019-02-27T09:28:34.338Z,7.13
2019-02-27T09:33:39.061Z,7.23
2019-02-27T09:38:40.391Z,7.50
2019-02-27T09:43:42.444Z,7.69
2019-02-27T09:48:44.462Z,7.89
2019-02-27T09:53:46.924Z,7.99
2019-02-27T09:58:49.018Z,8.12
2019-02-27T10:03:51.976Z,8.33
2019-02-27T10:08:56.497Z,8.44
2019-02-27T10:13:59.108Z,8.64
2019-02-27T10:19:01.204Z,8.87
2019-02-27T10:24:04.855Z,8.98
2019-02-27T10:29:07.441Z,9.12
2019-02-27T10:34:09.491Z,9.43
2019-02-27T10:39:11.616Z,9.46
2019-02-27T10:44:14.011Z,9.61
2019-02-27T10:49:16.069Z,9.71
2019-02-27T10:54:18.092Z,9.97
2019-02-27T10:59:22.242Z,10.15
2019-02-27T11:04:24.305Z,10.27
2019-02-27T11:09:27.851Z,10.46
2019-02-27T11:14:31.976Z,10.55
2019-02-27T11:19:34.873Z,10.75
2019-02-27T11:24:37.314Z,11.19
2019-02-27T11:29:39.458Z,11.10
2019-02-27T11:34:41.624Z,11.32
2019-02-27T11:39:43.723Z,11.32
2019-02-27T11:44:49.418Z,11.72
2019-02-27T11:49:49.780Z,11.57
2019-02-27T11:54:51.885Z,11.98
2019-02-27T11:59:53.947Z,11.95
2019-02-27T12:04:56.679Z,12.22
2019-02-27T12:09:58.835Z,12.53
2019-02-27T12:15:01.335Z,12.53
2019-02-27T12:20:04.036Z,12.70
2019-02-27T12:25:07.117Z,13.30
2019-02-27T12:30:14.500Z,13.00
2019-02-27T12:35:27.462Z,13.33
2019-02-27T12:40:29.653Z,12.97
2019-02-27T12:45:31.785Z,13.41
2019-02-27T12:50:34.022Z,13.61
2019-02-27T12:55:36.481Z,13.86
2019-02-27T13:00:39.988Z,13.85
2019-02-27T13:05:43.141Z,14.10
2019-02-27T13:10:45.265Z,14.31
2019-02-27T13:15:47.321Z,14.96
2019-02-27T13:20:49.443Z,14.81
2019-02-27T13:25:51.724Z,14.44
2019-02-27T13:30:53.870Z,14.91
2019-02-27T13:35:56.816Z,14.66
2019-02-27T13:40:59.947Z,15.05
2019-02-27T13:46:02.018Z,14.85
2019-02-27T13:51:04.334Z,14.97
2019-02-27T13:56:06.484Z,14.97
2019-02-27T14:01:08.839Z,14.93
2019-02-27T14:06:11.046Z,15.22
2019-02-27T14:11:13.149Z,16.28
2019-02-27T14:16:15.280Z,17.78
2019-02-27T14:21:17.328Z,15.92
2019-02-27T14:26:19.484Z,15.98
2019-02-27T14:31:21.556Z,15.95
2019-02-27T14:36:23.702Z,15.72
2019-02-27T14:41:25.774Z,16.05
2019-02-27T14:46:27.792Z,16.19
2019-02-27T14:51:29.899Z,16.50
2019-02-27T14:56:32.226Z,16.27
2019-02-27T15:01:34.462Z,21.69
2019-02-27T15:06:36.583Z,29.84
2019-02-27T15:11:38.659Z,33.20
2019-02-27T15:16:40.915Z,19.56
2019-02-27T15:21:43.909Z,17.33
2019-02-27T15:26:50.377Z,16.99
2019-02-27T15:31:52.147Z,16.83
2019-02-27T15:36:55.822Z,16.27
2019-02-27T15:41:57.860Z,15.87
2019-02-27T15:46:59.993Z,16.15
2019-02-27T15:52:06.425Z,16.03
2019-02-27T15:57:06.080Z,15.80
2019-02-27T16:02:08.214Z,15.20
2019-02-27T16:07:11.218Z,15.73
2019-02-27T16:12:14.208Z,15.44
2019-02-27T16:17:16.259Z,15.48
2019-02-27T16:22:18.380Z,15.28
2019-02-27T16:27:20.495Z,14.87
2019-02-27T16:32:22.712Z,14.87
2019-02-27T16:37:24.763Z,14.69
2019-02-27T16:42:28.561Z,14.28
2019-02-27T16:47:32.290Z,14.16
2019-02-27T16:52:34.743Z,14.21
2019-02-27T16:57:36.814Z,13.71
2019-02-27T17:02:39.058Z,13.55
2019-02-27T17:07:41.125Z,13.22
2019-02-27T17:12:43.210Z,12.80
2019-02-27T17:17:45.249Z,12.80
2019-02-27T17:22:47.365Z,12.57
2019-02-27T17:27:51.208Z,12.56
2019-02-27T17:32:53.794Z,12.56
2019-02-27T17:37:56.106Z,12.21
2019-02-27T17:42:58.432Z,12.16
2019-02-27T17:48:00.591Z,11.94
2019-02-27T17:53:02.719Z,11.82
2019-02-27T17:58:04.849Z,11.69
2019-02-27T18:03:07.079Z,11.51
2019-02-27T18:08:09.112Z,11.43
2019-02-27T18:13:11.497Z,11.58
2019-02-27T18:18:13.745Z,11.44
2019-02-27T18:23:15.919Z,11.50
2019-02-27T18:28:17.939Z,11.14
2019-02-27T18:33:20.016Z,11.02
2019-02-27T18:38:27.576Z,10.87
2019-02-27T18:43:27.235Z,10.75
2019-02-27T18:48:31.541Z,10.68
2019-02-27T18:53:33.907Z,10.66
2019-02-27T18:58:36.219Z,10.61
2019-02-27T19:03:38.328Z,10.58
2019-02-27T19:08:40.386Z,10.49
2019-02-27T19:13:42.429Z,10.38
2019-02-27T19:18:44.655Z,10.23
2019-02-27T19:23:49.541Z,10.24
2019-02-27T19:28:50.859Z,10.72
2019-02-27T19:33:52.935Z,10.59
2019-02-27T19:38:55.044Z,10.28
2019-02-27T19:43:57.227Z,10.16
2019-02-27T19:49:00.876Z,10.39
2019-02-27T19:54:04.185Z,10.24
2019-02-27T19:59:07.414Z,10.02
2019-02-27T20:04:10.224Z,9.96
2019-02-27T20:09:20.745Z,9.83
2019-02-27T20:14:23.158Z,9.76
2019-02-27T20:19:28.240Z,9.69
2019-02-27T20:24:29.318Z,9.60
2019-02-27T20:29:31.441Z,9.69
2019-02-27T20:34:33.506Z,9.65
2019-02-27T20:39:36.113Z,9.49
2019-02-27T20:44:38.780Z,9.41
2019-02-27T20:49:40.971Z,9.33
2019-02-27T20:54:43.021Z,9.08
2019-02-27T20:59:45.117Z,9.16
2019-02-27T21:04:47.282Z,9.10
2019-02-27T21:09:49.384Z,8.98
2019-02-27T21:14:51.474Z,8.94
2019-02-27T21:19:54.172Z,8.80
2019-02-27T21:24:56.343Z,8.78
2019-02-27T21:29:58.449Z,8.79
2019-02-27T21:35:00.684Z,8.70
2019-02-27T21:40:03.457Z,8.61
2019-02-27T21:45:07.711Z,8.52
2019-02-27T21:50:12.024Z,8.40
2019-02-27T21:55:14.196Z,8.38
2019-02-27T22:00:20.246Z,8.22
2019-02-27T22:05:22.389Z,8.14
2019-02-27T22:10:24.444Z,8.05
2019-02-27T22:15:27.212Z,7.91
2019-02-27T22:20:29.400Z,7.75
2019-02-27T22:25:31.455Z,7.67
2019-02-27T22:30:33.783Z,7.53
2019-02-27T22:35:37.844Z,7.49
2019-02-27T22:40:39.840Z,7.41
2019-02-27T22:45:43.966Z,7.31
2019-02-27T22:50:46.048Z,7.27
2019-02-27T22:55:48.129Z,7.15
2019-02-27T23:01:14.989Z,7.13
2019-02-27T23:06:17.032Z,7.05
2019-02-27T23:11:19.136Z,6.96
2019-02-27T23:16:22.023Z,6.97
2019-02-27T23:21:26.601Z,6.94
2019-02-27T23:26:28.581Z,6.82
2019-02-27T23:31:30.757Z,6.81
2019-02-27T23:36:32.859Z,6.78
2019-02-27T23:41:35.013Z,6.63
2019-02-27T23:46:37.122Z,6.59
2019-02-27T23:51:39.242Z,6.46
2019-02-27T23:56:41.299Z,6.40
